createdAt,value
2022-10-14T00:02:19.610Z,7.70
2022-10-14T00:04:46.394Z,7.07
2022-10-14T00:07:13.133Z,7.33
2022-10-14T00:09:39.580Z,7.50
2022-10-14T00:12:06.244Z,7.40
2022-10-14T00:14:32.729Z,8.47
2022-10-14T00:16:59.318Z,7.90
2022-10-14T00:19:25.780Z,7.37
2022-10-14T00:21:52.229Z,8.50
2022-10-14T00:24:18.768Z,8.93
2022-10-14T00:26:45.682Z,9.30
2022-10-14T00:29:15.239Z,8.43
2022-10-14T00:31:41.712Z,9.07
2022-10-14T00:34:08.685Z,10.20
2022-10-14T00:36:35.567Z,9.60
2022-10-14T00:39:02.080Z,8.43
2022-10-14T00:41:31.628Z,8.17
2022-10-14T00:44:05.894Z,7.95
2022-10-14T00:46:35.624Z,7.87
2022-10-14T00:49:08.137Z,8.32
2022-10-14T00:51:35.344Z,7.90
2022-10-14T00:54:02.180Z,8.73
2022-10-14T00:56:29.712Z,9.30
2022-10-14T00:58:57.301Z,9.00
2022-10-14T01:01:23.944Z,8.47
2022-10-14T01:03:50.404Z,8.97
2022-10-14T01:06:40.656Z,8.60
2022-10-14T01:09:28.902Z,9.77
2022-10-14T01:12:28.478Z,9.10
2022-10-14T01:15:14.765Z,9.80
2022-10-14T01:18:14.368Z,9.10
2022-10-14T01:20:49.680Z,8.93
2022-10-14T01:23:53.578Z,9.37
2022-10-14T01:26:54.157Z,9.10
2022-10-14T01:29:53.053Z,8.10
2022-10-14T01:32:26.032Z,6.80
2022-10-14T01:34:58.423Z,9.17
2022-10-14T01:37:28.473Z,7.27
2022-10-14T01:40:02.447Z,7.40
2022-10-14T01:42:32.119Z,6.67
2022-10-14T01:45:07.035Z,7.70
2022-10-14T01:47:34.842Z,7.37
2022-10-14T01:50:09.216Z,7.50
2022-10-14T01:52:40.236Z,6.97
2022-10-14T01:55:10.598Z,6.93
2022-10-14T01:57:41.091Z,7.73
2022-10-14T02:00:08.088Z,7.00
2022-10-14T02:02:38.113Z,6.60
2022-10-14T02:07:41.660Z,8.47
2022-10-14T02:10:29.914Z,8.00
2022-10-14T02:13:15.002Z,8.63
2022-10-14T02:15:58.300Z,8.97
2022-10-14T02:18:40.115Z,8.13
2022-10-14T02:21:54.479Z,7.83
2022-10-14T02:24:28.068Z,7.50
2022-10-14T02:26:56.003Z,7.53
2022-10-14T02:29:23.156Z,7.87
2022-10-14T02:31:50.554Z,8.30
2022-10-14T02:34:19.819Z,9.03
2022-10-14T02:36:46.668Z,7.90
2022-10-14T02:39:15.832Z,9.30
2022-10-14T02:41:42.393Z,9.65
2022-10-14T02:44:08.933Z,8.30
2022-10-14T02:46:35.691Z,8.70
2022-10-14T02:49:02.478Z,8.53
2022-10-14T02:51:29.087Z,8.80
2022-10-14T02:53:55.551Z,10.33
2022-10-14T02:56:22.058Z,10.23
2022-10-14T02:58:48.633Z,10.63
2022-10-14T03:01:15.358Z,9.30
2022-10-14T03:03:42.069Z,11.43
2022-10-14T03:06:08.674Z,11.77
2022-10-14T03:08:35.402Z,10.87
2022-10-14T03:11:01.991Z,11.77
2022-10-14T03:13:28.489Z,12.90
2022-10-14T03:15:55.093Z,12.20
2022-10-14T03:18:21.578Z,11.23
2022-10-14T03:20:48.037Z,10.93
2022-10-14T03:23:14.483Z,12.40
2022-10-14T03:25:41.831Z,11.50
2022-10-14T03:28:08.294Z,12.10
2022-10-14T03:30:34.805Z,13.23
2022-10-14T03:33:01.414Z,13.50
2022-10-14T03:35:28.486Z,15.70
2022-10-14T03:37:55.304Z,12.97
2022-10-14T03:40:22.650Z,13.83
2022-10-14T03:42:49.106Z,15.07
2022-10-14T03:45:15.611Z,16.10
2022-10-14T03:47:42.145Z,14.90
2022-10-14T03:50:09.476Z,16.30
2022-10-14T03:52:35.946Z,14.83
2022-10-14T03:55:02.399Z,15.53
2022-10-14T03:57:28.847Z,19.70
2022-10-14T03:59:55.655Z,18.57
2022-10-14T04:02:22.466Z,17.97
2022-10-14T04:04:49.189Z,16.73
2022-10-14T04:07:16.355Z,15.07
2022-10-14T04:09:43.097Z,16.00
2022-10-14T04:12:09.644Z,18.10
2022-10-14T04:14:38.594Z,15.10
2022-10-14T04:17:05.049Z,14.87
2022-10-14T04:19:31.663Z,14.00
2022-10-14T04:21:58.122Z,14.80
2022-10-14T04:24:24.575Z,14.93
2022-10-14T04:26:51.834Z,13.43
2022-10-14T04:29:18.717Z,14.13
2022-10-14T04:31:45.203Z,13.80
2022-10-14T04:34:11.780Z,13.33
2022-10-14T04:36:38.330Z,13.87
2022-10-14T04:39:04.950Z,13.23
2022-10-14T04:41:31.702Z,14.50
2022-10-14T04:43:58.238Z,12.80
2022-10-14T04:46:24.734Z,13.00
2022-10-14T04:48:51.724Z,13.83
2022-10-14T04:51:18.203Z,19.00
2022-10-14T04:53:45.259Z,15.30
2022-10-14T04:56:11.731Z,16.90
2022-10-14T04:58:38.187Z,17.13
2022-10-14T05:01:04.714Z,17.10
2022-10-14T05:03:31.227Z,13.83
2022-10-14T05:05:58.113Z,13.73
2022-10-14T05:08:24.911Z,14.50
2022-10-14T05:10:51.444Z,14.67
2022-10-14T05:13:18.490Z,14.17
2022-10-14T05:15:44.981Z,17.90
2022-10-14T05:18:12.814Z,17.50
2022-10-14T05:20:39.374Z,17.93
2022-10-14T05:23:06.556Z,14.60
2022-10-14T05:25:33.024Z,16.20
2022-10-14T05:27:59.535Z,16.00
2022-10-14T05:30:28.605Z,16.83
2022-10-14T05:32:57.349Z,16.57
2022-10-14T05:35:46.438Z,15.30
2022-10-14T05:38:10.497Z,15.53
2022-10-14T05:40:37.072Z,14.57
2022-10-14T05:43:03.879Z,16.20
2022-10-14T05:45:30.380Z,13.40
2022-10-14T05:47:56.938Z,14.20
2022-10-14T05:50:23.418Z,15.37
2022-10-14T05:52:50.216Z,16.93
2022-10-14T05:55:16.730Z,17.20
2022-10-14T05:57:43.156Z,15.97
2022-10-14T06:00:10.515Z,15.43
2022-10-14T06:02:37.060Z,16.53
2022-10-14T06:05:03.667Z,14.23
2022-10-14T06:07:30.225Z,15.87
2022-10-14T06:09:56.758Z,14.83
2022-10-14T06:12:23.914Z,15.93
2022-10-14T06:14:50.739Z,16.90
2022-10-14T06:17:17.667Z,14.13
2022-10-14T06:19:44.318Z,14.63
2022-10-14T06:22:10.793Z,14.00
2022-10-14T06:24:39.741Z,13.33
2022-10-14T06:27:06.254Z,14.10
2022-10-14T06:29:32.758Z,15.50
2022-10-14T06:31:59.254Z,14.30
2022-10-14T06:34:25.680Z,13.93
2022-10-14T06:36:52.208Z,14.17
2022-10-14T06:39:18.788Z,12.40
2022-10-14T06:41:45.276Z,13.50
2022-10-14T06:44:11.731Z,11.90
2022-10-14T06:46:38.181Z,11.90
2022-10-14T06:49:04.651Z,13.83
2022-10-14T06:51:31.105Z,13.47
2022-10-14T06:53:57.900Z,12.87
2022-10-14T06:56:24.983Z,12.90
2022-10-14T06:58:54.961Z,11.30
2022-10-14T07:03:51.675Z,11.60
2022-10-14T07:06:20.856Z,11.37
2022-10-14T07:08:47.568Z,11.67
2022-10-14T07:11:14.095Z,11.53
2022-10-14T07:13:40.541Z,11.37
2022-10-14T07:16:07.057Z,10.23
2022-10-14T07:18:33.477Z,9.70
2022-10-14T07:21:04.538Z,9.30
2022-10-14T07:23:31.747Z,9.57
2022-10-14T07:25:58.900Z,10.27
2022-10-14T07:28:25.447Z,8.50
2022-10-14T07:31:03.642Z,8.40
2022-10-14T07:33:31.335Z,8.38
2022-10-14T07:36:06.185Z,6.53
2022-10-14T07:38:32.862Z,7.13
2022-10-14T07:41:08.431Z,7.77
2022-10-14T07:43:35.791Z,6.50
2022-10-14T07:46:05.153Z,6.77
2022-10-14T07:48:45.281Z,7.28
2022-10-14T07:51:20.626Z,6.70
2022-10-14T07:53:47.477Z,6.70
2022-10-14T07:56:14.426Z,6.30
2022-10-14T07:58:44.371Z,6.00
2022-10-14T08:01:11.819Z,6.60
2022-10-14T08:03:38.322Z,7.00
2022-10-14T08:06:05.500Z,6.87
2022-10-14T08:08:32.371Z,7.60
2022-10-14T08:11:02.535Z,7.23
2022-10-14T08:13:30.322Z,7.80
2022-10-14T08:15:57.049Z,6.53
2022-10-14T08:18:23.759Z,6.93
2022-10-14T08:20:50.218Z,7.10
2022-10-14T08:23:19.807Z,7.40
2022-10-14T08:28:16.202Z,7.43
2022-10-14T08:30:42.780Z,6.60
2022-10-14T08:33:09.333Z,7.93
2022-10-14T08:35:35.820Z,7.00
2022-10-14T08:38:02.503Z,7.67
2022-10-14T08:40:30.279Z,6.83
2022-10-14T08:43:48.379Z,7.00
2022-10-14T08:46:38.206Z,7.73
2022-10-14T08:49:16.291Z,7.32
2022-10-14T08:51:45.423Z,7.37
2022-10-14T08:54:24.815Z,6.63
2022-10-14T08:56:51.742Z,6.65
2022-10-14T08:59:20.719Z,6.57
2022-10-14T09:02:00.730Z,6.88
2022-10-14T09:06:54.579Z,7.30
2022-10-14T09:09:27.730Z,7.00
2022-10-14T09:12:00.273Z,6.83
2022-10-14T09:14:36.336Z,6.50
2022-10-14T09:17:19.236Z,5.80
2022-10-14T09:19:59.925Z,6.57
2022-10-14T09:22:27.582Z,5.50
2022-10-14T09:24:54.040Z,5.67
2022-10-14T09:27:22.563Z,5.20
2022-10-14T09:29:54.909Z,6.60
2022-10-14T09:32:39.754Z,5.53
2022-10-14T09:35:14.143Z,5.60
2022-10-14T09:37:40.633Z,7.30
2022-10-14T09:40:13.268Z,5.57
2022-10-14T09:43:03.292Z,16.57
2022-10-14T09:45:47.302Z,5.68
2022-10-14T09:48:29.915Z,6.27
2022-10-14T09:50:57.086Z,5.17
2022-10-14T09:53:30.974Z,5.23
2022-10-14T09:56:01.092Z,5.53
2022-10-14T10:00:57.774Z,5.77
2022-10-14T10:03:30.430Z,4.50
2022-10-14T10:06:07.406Z,5.80
2022-10-14T10:08:52.874Z,4.77
2022-10-14T10:11:40.467Z,5.40
2022-10-14T10:14:24.801Z,6.00
2022-10-14T10:17:11.672Z,5.50
2022-10-14T10:19:42.847Z,5.53
2022-10-14T10:22:28.929Z,5.53
2022-10-14T10:24:58.670Z,5.83
2022-10-14T10:27:27.699Z,5.50
2022-10-14T10:29:54.613Z,4.80
2022-10-14T10:32:27.137Z,4.47
2022-10-14T10:35:39.075Z,4.57
2022-10-14T10:38:20.289Z,4.13
2022-10-14T10:41:05.596Z,4.57
2022-10-14T10:43:53.484Z,4.20
2022-10-14T10:47:07.806Z,3.93
2022-10-14T10:49:46.306Z,3.77
2022-10-14T10:52:37.527Z,3.77
2022-10-14T10:55:26.577Z,4.00
2022-10-14T10:57:59.265Z,3.83
2022-10-14T11:00:26.615Z,3.90
2022-10-14T11:02:53.967Z,3.70
2022-10-14T11:05:31.017Z,3.80
2022-10-14T11:08:03.690Z,4.10
2022-10-14T11:11:02.091Z,4.20
2022-10-14T11:13:56.284Z,3.97
2022-10-14T11:16:30.598Z,4.27
2022-10-14T11:19:14.634Z,4.40
2022-10-14T11:22:18.779Z,4.27
2022-10-14T11:25:17.109Z,4.13
2022-10-14T11:27:48.746Z,4.40
2022-10-14T11:30:18.429Z,3.50
2022-10-14T11:33:23.413Z,3.78
2022-10-14T11:36:27.642Z,4.10
2022-10-14T11:39:16.749Z,4.00
2022-10-14T11:41:52.401Z,3.80
2022-10-14T11:44:24.087Z,3.57
2022-10-14T11:46:53.943Z,3.67
2022-10-14T11:52:04.971Z,3.50
2022-10-14T11:54:36.701Z,3.17
2022-10-14T11:57:36.141Z,3.13
2022-10-14T12:00:06.112Z,2.70
2022-10-14T12:02:50.012Z,2.60
2022-10-14T12:05:34.426Z,2.57
2022-10-14T12:08:35.875Z,2.60
2022-10-14T12:11:09.154Z,2.60
2022-10-14T12:13:47.443Z,2.97
2022-10-14T12:16:17.084Z,2.80
2022-10-14T12:18:45.557Z,2.67
2022-10-14T12:21:27.410Z,2.73
2022-10-14T12:23:59.466Z,2.20
2022-10-14T12:26:25.866Z,2.33
2022-10-14T12:28:54.199Z,2.50
2022-10-14T12:31:36.771Z,2.35
2022-10-14T12:34:12.494Z,2.40
2022-10-14T12:36:43.902Z,2.63
2022-10-14T12:39:19.570Z,2.90
2022-10-14T12:42:01.768Z,2.40
2022-10-14T12:44:33.020Z,2.70
2022-10-14T12:47:00.467Z,2.50
2022-10-14T12:49:32.859Z,2.77
2022-10-14T12:52:02.841Z,3.00
2022-10-14T12:54:31.038Z,3.27
2022-10-14T12:57:01.441Z,3.20
2022-10-14T12:59:35.281Z,2.90
2022-10-14T13:02:27.049Z,3.00
2022-10-14T13:04:54.931Z,3.10
2022-10-14T13:07:42.888Z,2.83
2022-10-14T13:10:28.067Z,3.23
2022-10-14T13:12:55.042Z,2.60
2022-10-14T13:15:50.685Z,2.77
2022-10-14T13:18:42.365Z,3.00
2022-10-14T13:21:10.495Z,2.60
2022-10-14T13:23:45.279Z,2.87
2022-10-14T13:26:49.161Z,2.60
2022-10-14T13:29:30.709Z,2.90
2022-10-14T13:32:18.755Z,2.50
2022-10-14T13:35:02.931Z,2.70
2022-10-14T13:37:41.947Z,2.07
2022-10-14T13:40:34.145Z,2.27
2022-10-14T13:43:13.671Z,2.15
2022-10-14T13:45:46.681Z,2.30
2022-10-14T13:48:16.875Z,2.03
2022-10-14T13:50:44.519Z,1.97
2022-10-14T13:53:16.795Z,2.30
2022-10-14T13:55:53.219Z,2.20
2022-10-14T13:58:22.543Z,1.87
2022-10-14T14:01:01.156Z,2.00
2022-10-14T14:03:44.926Z,1.87
2022-10-14T14:06:14.399Z,1.90
2022-10-14T14:08:49.179Z,1.80
2022-10-14T14:11:30.576Z,1.87
2022-10-14T14:14:06.349Z,1.87
2022-10-14T14:16:35.719Z,1.97
2022-10-14T14:19:08.316Z,1.70
2022-10-14T14:21:36.730Z,1.60
2022-10-14T14:24:15.426Z,1.70
2022-10-14T14:26:42.178Z,1.53
2022-10-14T14:29:17.921Z,1.67
2022-10-14T14:32:05.395Z,1.70
2022-10-14T14:34:32.079Z,1.60
2022-10-14T14:37:10.658Z,2.00
2022-10-14T14:39:58.689Z,1.97
2022-10-14T14:42:26.899Z,2.20
2022-10-14T14:44:56.195Z,2.27
2022-10-14T14:47:23.410Z,2.50
2022-10-14T14:50:01.557Z,3.13
2022-10-14T14:52:38.389Z,3.93
2022-10-14T14:55:05.343Z,3.40
2022-10-14T14:57:32.250Z,3.37
2022-10-14T15:00:06.111Z,3.53
2022-10-14T15:02:33.953Z,3.60
2022-10-14T15:05:03.840Z,2.53
2022-10-14T15:09:59.501Z,2.30
2022-10-14T15:12:29.508Z,2.13
2022-10-14T15:17:33.102Z,2.80
2022-10-14T15:20:31.484Z,2.00
2022-10-14T15:22:57.981Z,2.10
2022-10-14T15:25:29.498Z,2.27
2022-10-14T15:28:00.367Z,2.00
2022-10-14T15:30:28.787Z,2.00
2022-10-14T15:32:58.861Z,1.30
2022-10-14T15:37:53.261Z,0.93
2022-10-14T15:40:22.534Z,1.00
2022-10-14T15:42:49.656Z,0.93
2022-10-14T15:45:16.578Z,0.93
2022-10-14T15:47:43.338Z,1.10
2022-10-14T15:50:18.612Z,1.20
2022-10-14T15:52:45.403Z,1.20
2022-10-14T15:55:16.226Z,1.40
2022-10-14T15:57:43.453Z,1.40
2022-10-14T16:00:12.139Z,1.50
2022-10-14T16:02:39.161Z,1.83
2022-10-14T16:05:19.217Z,1.67
2022-10-14T16:07:47.239Z,1.80
2022-10-14T16:10:16.643Z,1.83
2022-10-14T16:12:43.814Z,2.38
2022-10-14T16:15:23.299Z,2.20
2022-10-14T16:17:52.832Z,1.90
2022-10-14T16:20:20.291Z,2.13
2022-10-14T16:22:47.491Z,2.50
2022-10-14T16:25:28.661Z,2.57
2022-10-14T16:27:55.403Z,3.10
2022-10-14T16:30:22.094Z,2.70
2022-10-14T16:32:48.869Z,2.00
2022-10-14T16:35:15.634Z,2.30
2022-10-14T16:37:42.325Z,2.70
2022-10-14T16:40:11.990Z,2.57
2022-10-14T16:42:39.075Z,3.40
2022-10-14T16:45:06.372Z,3.17
2022-10-14T16:47:32.895Z,3.03
2022-10-14T16:49:59.684Z,3.37
2022-10-14T16:52:26.535Z,3.20
2022-10-14T16:54:53.220Z,2.43
2022-10-14T16:57:19.733Z,3.40
2022-10-14T16:59:46.494Z,3.73
2022-10-14T17:02:14.881Z,3.30
2022-10-14T17:04:42.495Z,2.83
2022-10-14T17:07:10.565Z,3.50
2022-10-14T17:09:37.176Z,3.10
2022-10-14T17:12:08.056Z,3.97
2022-10-14T17:14:37.724Z,4.00
2022-10-14T17:17:04.861Z,3.30
2022-10-14T17:19:31.388Z,4.20
2022-10-14T17:21:57.924Z,4.13
2022-10-14T17:24:24.476Z,3.83
2022-10-14T17:26:51.029Z,3.67
2022-10-14T17:29:17.625Z,4.13
2022-10-14T17:31:44.383Z,3.47
2022-10-14T17:34:10.894Z,3.60
2022-10-14T17:36:40.253Z,3.60
2022-10-14T17:39:07.195Z,3.15
2022-10-14T17:41:33.685Z,3.00
2022-10-14T17:44:00.566Z,3.10
2022-10-14T17:46:27.782Z,2.60
2022-10-14T17:48:56.276Z,2.37
2022-10-14T17:51:23.666Z,2.80
2022-10-14T17:53:56.671Z,2.70
2022-10-14T17:56:23.292Z,2.30
2022-10-14T17:58:54.737Z,1.90
2022-10-14T18:01:36.683Z,1.73
2022-10-14T18:04:08.782Z,1.60
2022-10-14T18:06:35.630Z,1.97
2022-10-14T18:09:05.851Z,2.00
2022-10-14T18:11:49.893Z,1.80
2022-10-14T18:14:20.752Z,1.80
2022-10-14T18:16:47.220Z,1.77
2022-10-14T18:19:13.747Z,1.70
2022-10-14T18:21:40.237Z,1.57
2022-10-14T18:24:06.998Z,1.70
2022-10-14T18:26:33.593Z,1.70
2022-10-14T18:29:00.619Z,1.90
2022-10-14T18:31:29.050Z,2.00
2022-10-14T18:33:56.700Z,1.50
2022-10-14T18:36:25.114Z,1.50
2022-10-14T18:38:52.390Z,1.23
2022-10-14T18:41:19.643Z,1.50
2022-10-14T18:43:46.147Z,1.33
2022-10-14T18:46:19.570Z,1.40
2022-10-14T18:48:53.114Z,1.87
2022-10-14T18:51:22.358Z,1.50
2022-10-14T18:53:48.902Z,1.38
2022-10-14T18:56:19.583Z,1.30
2022-10-14T18:58:48.327Z,1.50
2022-10-14T19:01:15.807Z,1.40
2022-10-14T19:03:43.277Z,1.27
2022-10-14T19:06:11.825Z,1.37
2022-10-14T19:08:40.003Z,1.10
2022-10-14T19:11:15.499Z,1.57
2022-10-14T19:13:43.321Z,1.47
2022-10-14T19:16:15.701Z,1.20
2022-10-14T19:18:42.159Z,1.50
2022-10-14T19:21:13.630Z,1.40
2022-10-14T19:23:42.537Z,1.50
2022-10-14T19:26:13.736Z,1.37
2022-10-14T19:28:40.904Z,1.40
2022-10-14T19:31:09.225Z,1.23
2022-10-14T19:33:40.847Z,1.40
2022-10-14T19:36:08.513Z,1.70
2022-10-14T19:38:36.455Z,1.30
2022-10-14T19:41:05.776Z,1.20
2022-10-14T19:43:32.524Z,1.90
2022-10-14T19:45:59.445Z,1.67
2022-10-14T19:48:25.965Z,1.37
2022-10-14T19:50:52.633Z,1.90
2022-10-14T19:53:22.273Z,1.70
2022-10-14T19:55:49.007Z,2.00
2022-10-14T19:58:16.244Z,1.90
2022-10-14T20:00:42.783Z,2.57
2022-10-14T20:03:11.811Z,2.10
2022-10-14T20:05:41.328Z,3.07
2022-10-14T20:08:07.948Z,2.15
2022-10-14T20:10:34.722Z,3.67
2022-10-14T20:13:01.540Z,3.90
2022-10-14T20:15:28.122Z,4.00
2022-10-14T20:17:54.708Z,3.60
2022-10-14T20:20:21.177Z,4.00
2022-10-14T20:22:49.282Z,2.67
2022-10-14T20:25:15.993Z,3.83
2022-10-14T20:27:42.469Z,3.53
2022-10-14T20:30:09.824Z,4.70
2022-10-14T20:32:36.343Z,4.20
2022-10-14T20:35:02.906Z,3.70
2022-10-14T20:37:31.222Z,5.10
2022-10-14T20:39:57.819Z,4.60
2022-10-14T20:42:25.275Z,4.60
2022-10-14T20:44:53.170Z,4.17
2022-10-14T20:47:20.289Z,5.70
2022-10-14T20:49:47.027Z,4.07
2022-10-14T20:52:13.601Z,6.10
2022-10-14T20:54:40.108Z,5.17
2022-10-14T20:57:06.689Z,5.33
2022-10-14T20:59:33.182Z,4.80
2022-10-14T21:01:59.658Z,4.27
2022-10-14T21:04:26.186Z,5.83
2022-10-14T21:06:52.962Z,3.77
2022-10-14T21:09:19.446Z,3.80
2022-10-14T21:11:46.253Z,3.70
2022-10-14T21:14:12.832Z,3.87
2022-10-14T21:16:39.512Z,3.77
2022-10-14T21:19:08.660Z,4.27
2022-10-14T21:21:40.341Z,3.17
2022-10-14T21:24:07.995Z,4.40
2022-10-14T21:26:37.512Z,3.40
2022-10-14T21:29:04.250Z,4.00
2022-10-14T21:31:31.684Z,2.90
2022-10-14T21:34:05.080Z,4.00
2022-10-14T21:36:33.302Z,4.90
2022-10-14T21:38:59.856Z,3.63
2022-10-14T21:41:27.098Z,2.93
2022-10-14T21:43:55.947Z,3.70
2022-10-14T21:46:22.774Z,2.60
2022-10-14T21:48:54.059Z,3.10
2022-10-14T21:51:20.749Z,3.30
2022-10-14T21:53:47.232Z,3.60
2022-10-14T21:56:14.766Z,4.03
2022-10-14T21:58:41.535Z,4.20
2022-10-14T22:01:23.248Z,4.10
2022-10-14T22:03:57.566Z,3.30
2022-10-14T22:06:24.282Z,4.70
2022-10-14T22:08:53.816Z,3.80
2022-10-14T22:11:23.251Z,3.13
2022-10-14T22:13:50.958Z,4.38
2022-10-14T22:16:20.757Z,4.47
2022-10-14T22:18:49.030Z,4.68
2022-10-14T22:21:17.586Z,4.20
2022-10-14T22:23:45.509Z,4.70
2022-10-14T22:26:13.939Z,3.83
2022-10-14T22:28:40.839Z,4.50
2022-10-14T22:31:09.894Z,3.80
2022-10-14T22:33:40.621Z,4.18
2022-10-14T22:36:19.414Z,4.50
2022-10-14T22:38:51.944Z,3.10
2022-10-14T22:41:22.223Z,4.30
2022-10-14T22:43:53.916Z,4.00
2022-10-14T22:46:22.934Z,3.87
2022-10-14T22:48:50.456Z,3.20
2022-10-14T22:51:18.464Z,2.87
2022-10-14T22:53:45.988Z,3.83
2022-10-14T22:56:16.700Z,3.00
2022-10-14T22:58:43.303Z,2.87
2022-10-14T23:01:11.793Z,3.00
2022-10-14T23:03:38.338Z,3.10
2022-10-14T23:06:06.948Z,3.13
2022-10-14T23:08:34.557Z,2.63
2022-10-14T23:11:03.272Z,2.63
2022-10-14T23:13:30.093Z,2.80
2022-10-14T23:16:07.000Z,3.00
2022-10-14T23:18:36.084Z,2.80
2022-10-14T23:21:25.199Z,2.85
2022-10-14T23:23:52.638Z,2.63
2022-10-14T23:26:21.317Z,2.03
2022-10-14T23:28:49.842Z,2.30
2022-10-14T23:31:17.999Z,2.30
2022-10-14T23:33:44.486Z,2.47
2022-10-14T23:36:12.969Z,2.57
2022-10-14T23:38:39.953Z,2.83
2022-10-14T23:41:07.592Z,3.00
2022-10-14T23:43:34.327Z,2.80
2022-10-14T23:46:00.927Z,2.23
2022-10-14T23:48:27.827Z,2.23
2022-10-14T23:50:54.967Z,2.10
2022-10-14T23:53:21.601Z,2.20
2022-10-14T23:55:48.147Z,2.13
2022-10-14T23:58:17.094Z,2.17
